TimeEST,TemperatureF,Dew PointF,Humidity,Sea Level PressureIn,VisibilityMPH,Wind Direction,Wind SpeedMPH,Gust SpeedMPH,PrecipitationIn,Events,Conditions,WindDirDegrees,DateUTC
12:14 AM,24.8,17.6,74,30.00,10.0,West,17.3,25.3,N/A,,Overcast,280,2013-01-05 05:14:00
12:56 AM,25.0,18.0,75,30.10,10.0,West,11.5,24.2,N/A,,Overcast,270,2013-01-05 05:56:00
1:56 AM,25.0,19.0,78,30.12,10.0,West,11.5,23.0,N/A,,Overcast,280,2013-01-05 06:56:00
2:56 AM,25.0,19.9,81,30.14,9.0,WNW,16.1,25.3,N/A,,Overcast,290,2013-01-05 07:56:00
3:40 AM,26.6,21.2,80,30.08,9.0,West,15.0,26.5,N/A,,Overcast,280,2013-01-05 08:40:00
3:56 AM,26.1,21.0,81,30.16,10.0,WNW,12.7,-,N/A,,Overcast,300,2013-01-05 08:56:00
4:56 AM,26.1,21.0,81,30.18,9.0,West,19.6,24.2,N/A,,Overcast,280,2013-01-05 09:56:00
5:44 AM,26.6,21.2,80,30.12,10.0,WNW,12.7,-,N/A,,Overcast,290,2013-01-05 10:44:00
5:56 AM,26.1,21.0,81,30.22,10.0,WNW,12.7,-,N/A,,Overcast,290,2013-01-05 10:56:00
6:56 AM,26.1,21.0,81,30.25,10.0,West,9.2,-,N/A,,Overcast,280,2013-01-05 11:56:00
7:56 AM,26.1,19.9,78,30.27,10.0,West,11.5,-,N/A,,Overcast,280,2013-01-05 12:56:00
8:56 AM,26.1,21.0,81,30.30,10.0,West,9.2,-,N/A,,Overcast,280,2013-01-05 13:56:00
9:56 AM,27.0,21.0,78,30.33,8.0,West,8.1,-,N/A,,Overcast,270,2013-01-05 14:56:00
10:11 AM,26.6,19.4,74,30.24,9.0,West,8.1,-,N/A,,Overcast,270,2013-01-05 15:11:00
10:56 AM,28.0,21.0,75,30.33,10.0,West,8.1,-,N/A,,Overcast,270,2013-01-05 15:56:00
11:56 AM,28.0,19.9,72,30.30,10.0,West,8.1,-,N/A,,Overcast,270,2013-01-05 16:56:00
12:56 PM,28.9,19.0,67,30.26,10.0,West,5.8,-,N/A,,Overcast,270,2013-01-05 17:56:00
1:56 PM,28.9,19.0,67,30.25,10.0,West,5.8,-,N/A,,Overcast,260,2013-01-05 18:56:00
2:56 PM,28.0,18.0,66,30.25,10.0,SW,6.9,-,N/A,,Overcast,230,2013-01-05 19:56:00
3:49 PM,28.4,17.6,64,30.17,10.0,WSW,5.8,-,N/A,,Scattered Clouds,240,2013-01-05 20:49:00
3:56 PM,27.0,18.0,69,30.25,10.0,WSW,4.6,-,N/A,,Partly Cloudy,240,2013-01-05 20:56:00
5:56 PM,25.0,17.1,72,30.21,10.0,South,6.9,-,N/A,,Clear,190,2013-01-05 22:56:00
6:56 PM,25.0,17.1,72,30.21,10.0,South,6.9,-,N/A,,Clear,180,2013-01-05 23:56:00
7:56 PM,25.0,17.1,72,30.20,10.0,SSW,6.9,-,N/A,,Scattered Clouds,200,2013-01-06 00:56:00
8:56 PM,25.0,18.0,75,30.19,10.0,SW,5.8,-,N/A,,Overcast,220,2013-01-06 01:56:00
9:56 PM,25.0,18.0,75,30.16,10.0,South,9.2,-,N/A,,Overcast,190,2013-01-06 02:56:00
10:56 PM,26.1,19.0,75,30.15,10.0,SW,9.2,-,N/A,,Overcast,230,2013-01-06 03:56:00
11:13 PM,26.6,19.4,74,30.05,3.0,SSW,9.2,-,0.00,Snow,Light Snow,210,2013-01-06 04:13:00
11:25 PM,26.6,19.4,74,30.05,9.0,SW,8.1,-,0.00,,Overcast,220,2013-01-06 04:25:00
11:56 PM,27.0,19.0,72,30.12,10.0,SW,6.9,-,0.00,,Overcast,220,2013-01-06 04:56:00